Time;durP1;ratioP1;P1;durP2;ratioP2;P2;SDS_P1;SDS_P2;PMS_P1;PMS_P2;Temp;Humidity;BMP_temperature;BMP_pressure;BME280_temperature;BME280_humidity;BME280_pressure;Samples;Min_cycle;Max_cycle;Signal;HPM_P1;HPM_P2
2023/01/23 00:01:21;;;;;;;15.15;13.13;;;6.10;62.70;;;;;;4964632;28;20494;-82
2023/01/23 00:03:47;;;;;;;14.10;12.18;;;6.10;62.70;;;;;;4945618;28;20667;-82
2023/01/23 00:06:14;;;;;;;12.93;11.68;;;6.00;62.60;;;;;;4946341;28;20047;-81
2023/01/23 00:08:42;;;;;;;14.27;12.77;;;6.10;62.80;;;;;;4946457;28;20058;-80
2023/01/23 00:11:14;;;;;;;12.45;11.25;;;6.00;62.70;;;;;;4945208;28;20031;-81
2023/01/23 00:13:40;;;;;;;14.48;12.05;;;6.00;62.80;;;;;;4948178;28;20406;-82
2023/01/23 00:16:09;;;;;;;13.88;12.48;;;5.90;62.70;;;;;;4946658;28;20037;-82
2023/01/23 00:18:35;;;;;;;12.70;11.40;;;5.90;62.70;;;;;;4945724;28;20043;-81
2023/01/23 00:21:09;;;;;;;16.33;13.15;;;5.90;62.80;;;;;;4953797;28;20054;-81
2023/01/23 00:23:35;;;;;;;13.77;12.38;;;5.80;62.60;;;;;;4936819;28;20137;-80
2023/01/23 00:26:07;;;;;;;14.23;12.68;;;5.80;62.70;;;;;;4951735;28;20382;-83
2023/01/23 00:28:33;;;;;;;14.63;13.13;;;5.80;62.80;;;;;;4947561;28;20035;-83
2023/01/23 00:31:08;;;;;;;13.70;12.10;;;5.70;62.60;;;;;;4952316;28;20045;-84
2023/01/23 00:33:34;;;;;;;14.45;12.13;;;5.70;62.70;;;;;;4957631;28;20060;-81
2023/01/23 00:36:01;;;;;;;13.95;12.55;;;5.70;62.70;;;;;;4945092;28;20434;-82
2023/01/23 00:38:27;;;;;;;13.27;11.98;;;5.70;62.80;;;;;;4947050;28;20035;-82
2023/01/23 00:40:54;;;;;;;14.60;12.40;;;5.60;62.60;;;;;;4951687;28;20039;-81
2023/01/23 00:43:21;;;;;;;13.20;11.50;;;5.60;62.70;;;;;;4945372;28;20102;-81
2023/01/23 00:45:48;;;;;;;13.55;12.20;;;5.60;62.70;;;;;;4941219;28;20123;-81
2023/01/23 00:48:14;;;;;;;12.63;11.32;;;5.60;62.70;;;;;;4937188;28;20114;-82
2023/01/23 00:50:40;;;;;;;13.30;11.98;;;5.50;62.60;;;;;;4949788;28;20040;-81
2023/01/23 00:53:06;;;;;;;13.10;11.77;;;5.50;62.60;;;;;;4943822;28;20119;-81
2023/01/23 00:55:32;;;;;;;13.82;12.10;;;5.50;62.60;;;;;;4946275;28;20122;-81
2023/01/23 00:57:59;;;;;;;13.05;11.60;;;5.50;62.60;;;;;;4963765;28;20038;-82
2023/01/23 01:00:25;;;;;;;14.25;12.20;;;5.40;62.50;;;;;;4963274;28;20057;-82
2023/01/23 01:02:51;;;;;;;13.38;12.07;;;5.40;62.50;;;;;;4967347;28;20031;-82
2023/01/23 01:05:17;;;;;;;12.73;11.45;;;5.40;62.50;;;;;;4957718;28;20032;-82
2023/01/23 01:07:46;;;;;;;13.52;11.93;;;5.40;62.50;;;;;;4961567;28;20028;-81
2023/01/23 01:10:14;;;;;;;12.75;11.10;;;5.40;62.50;;;;;;4959633;28;20035;-82
2023/01/23 01:12:40;;;;;;;12.55;11.25;;;5.40;62.50;;;;;;4960740;28;20066;-81
2023/01/23 01:15:07;;;;;;;12.75;11.48;;;5.30;62.40;;;;;;4955409;28;20038;-79
2023/01/23 01:17:34;;;;;;;13.55;11.88;;;5.30;62.40;;;;;;4963254;28;20130;-81
2023/01/23 01:20:01;;;;;;;13.68;12.27;;;5.30;62.50;;;;;;4956312;28;20125;-82
2023/01/23 01:22:27;;;;;;;13.70;12.32;;;5.20;62.30;;;;;;4953372;28;20905;-81
2023/01/23 01:24:53;;;;;;;13.35;12.05;;;5.30;62.50;;;;;;4962790;28;20031;-81
2023/01/23 01:27:19;;;;;;;13.00;11.65;;;5.20;62.40;;;;;;4952650;28;20035;-79
2023/01/23 01:29:45;;;;;;;14.23;12.68;;;5.20;62.40;;;;;;4966472;28;20262;-81
2023/01/23 01:32:11;;;;;;;15.05;12.18;;;5.20;62.50;;;;;;4957782;28;20250;-81
2023/01/23 01:34:37;;;;;;;12.20;10.40;;;5.20;62.50;;;;;;4955566;28;20035;-81
2023/01/23 01:37:03;;;;;;;13.40;12.10;;;5.10;62.30;;;;;;4968576;28;20577;-82
2023/01/23 01:39:30;;;;;;;14.77;12.20;;;5.10;62.30;;;;;;4955181;28;20047;-81
2023/01/23 01:41:56;;;;;;;12.85;11.52;;;5.10;62.40;;;;;;4959287;28;20023;-81
2023/01/23 01:44:23;;;;;;;14.13;11.63;;;5.10;62.40;;;;;;4959376;28;20043;-81
2023/01/23 01:46:50;;;;;;;11.90;10.70;;;5.10;62.50;;;;;;4948691;28;20055;-81
2023/01/23 01:49:29;;;;;;;14.02;12.48;;;5.00;62.30;;;;;;4945951;28;20031;-81
2023/01/23 01:51:58;;;;;;;13.18;11.75;;;5.00;62.30;;;;;;4951392;28;20588;-80
2023/01/23 01:54:30;;;;;;;12.13;10.93;;;5.00;62.40;;;;;;4946329;28;20062;-80
2023/01/23 01:57:08;;;;;;;13.48;12.07;;;4.90;62.30;;;;;;4948127;28;20062;-81
2023/01/23 01:59:47;;;;;;;13.45;12.13;;;4.90;62.30;;;;;;4946996;28;20337;-82
2023/01/23 02:02:42;;;;;;;12.52;11.23;;;4.90;62.40;;;;;;4946830;28;20540;-81
2023/01/23 02:05:10;;;;;;;12.85;11.18;;;4.80;62.30;;;;;;4951044;28;20141;-82
2023/01/23 02:07:49;;;;;;;12.73;11.40;;;4.80;62.80;;;;;;4962806;28;20035;-80
2023/01/23 02:10:15;;;;;;;12.45;11.15;;;4.80;62.80;;;;;;4950621;28;20123;-82
2023/01/23 02:12:46;;;;;;;12.55;11.02;;;4.80;62.30;;;;;;4947105;28;20039;-82
2023/01/23 02:15:13;;;;;;;12.93;11.60;;;4.80;62.30;;;;;;4935366;28;20252;-81
2023/01/23 02:17:39;;;;;;;13.00;11.13;;;4.80;62.30;;;;;;4936542;28;20534;-79
2023/01/23 02:20:22;;;;;;;12.23;11.00;;;4.80;62.30;;;;;;4948185;28;20043;-81
2023/01/23 02:23:08;;;;;;;12.13;10.82;;;4.70;62.10;;;;;;4954005;28;20491;-80
2023/01/23 02:25:42;;;;;;;12.13;10.93;;;4.70;62.10;;;;;;4947836;28;20046;-82
2023/01/23 02:28:13;;;;;;;12.57;11.30;;;4.70;62.10;;;;;;4965327;28;20035;-81
2023/01/23 02:30:41;;;;;;;12.65;11.35;;;4.70;62.10;;;;;;4965997;28;20051;-80
2023/01/23 02:33:30;;;;;;;12.77;10.85;;;4.60;62.00;;;;;;4960617;28;20176;-80
2023/01/23 02:35:57;;;;;;;12.43;10.63;;;4.60;62.10;;;;;;4957722;28;20031;-81
2023/01/23 02:38:26;;;;;;;11.02;9.93;;;4.60;62.10;;;;;;4961629;28;20039;-80
2023/01/23 02:40:57;;;;;;;11.75;10.63;;;4.50;62.00;;;;;;4959976;28;20183;-80
2023/01/23 02:43:33;;;;;;;11.68;10.48;;;4.50;62.00;;;;;;4954252;28;20129;-81
2023/01/23 02:46:02;;;;;;;11.50;10.35;;;4.50;62.00;;;;;;4950546;28;20035;-80
2023/01/23 02:48:28;;;;;;;11.57;10.48;;;4.50;62.00;;;;;;4979594;28;20045;-80
2023/01/23 02:50:55;;;;;;;11.02;9.93;;;4.40;61.90;;;;;;4951845;28;20461;-80
2023/01/23 02:53:22;;;;;;;11.85;10.30;;;4.40;61.90;;;;;;4968835;28;20042;-80
2023/01/23 02:55:51;;;;;;;11.38;10.27;;;4.40;61.90;;;;;;4959501;28;20259;-80
2023/01/23 03:01:03;;;;;;;11.90;10.57;;;4.30;61.80;;;;;;4970780;28;20039;-80
2023/01/23 03:03:29;;;;;;;11.70;10.50;;;4.30;61.90;;;;;;4951382;28;20042;-81
2023/01/23 03:05:56;;;;;;;10.95;9.85;;;4.30;61.90;;;;;;4971351;28;20035;-81
2023/01/23 03:08:23;;;;;;;11.82;10.63;;;4.20;61.80;;;;;;4986987;28;20050;-81
2023/01/23 03:10:49;;;;;;;13.07;11.27;;;4.20;61.80;;;;;;4967626;28;20567;-82
2023/01/23 03:13:16;;;;;;;13.10;11.80;;;4.10;61.70;;;;;;4962794;28;20070;-80
2023/01/23 03:15:42;;;;;;;13.52;11.98;;;4.10;61.70;;;;;;4970468;28;20117;-79
2023/01/23 03:18:08;;;;;;;13.20;11.80;;;4.10;61.70;;;;;;4965138;28;20070;-80
2023/01/23 03:20:41;;;;;;;14.43;13.02;;;4.10;61.80;;;;;;4965952;28;20743;-80
2023/01/23 03:23:07;;;;;;;14.23;12.82;;;4.10;61.80;;;;;;4968757;28;20034;-79
2023/01/23 03:25:33;;;;;;;14.07;12.65;;;4.10;61.80;;;;;;4934572;28;20035;-78
2023/01/23 03:27:59;;;;;;;14.27;12.50;;;4.00;61.70;;;;;;4961524;28;20062;-79
2023/01/23 03:30:25;;;;;;;15.93;12.98;;;4.00;61.70;;;;;;4969159;28;20050;-79
2023/01/23 03:32:52;;;;;;;14.20;12.25;;;4.00;61.80;;;;;;4963910;28;20101;-78
2023/01/23 03:35:19;;;;;;;16.00;12.50;;;4.00;61.80;;;;;;4959093;28;20131;-79
2023/01/23 03:37:48;;;;;;;13.63;12.07;;;4.00;61.80;;;;;;4960879;28;20149;-79
2023/01/23 03:42:59;;;;;;;14.82;12.98;;;4.00;61.80;;;;;;4939354;28;20043;-81
2023/01/23 03:45:27;;;;;;;14.43;12.88;;;3.90;61.60;;;;;;4961928;28;20038;-81
2023/01/23 03:47:53;;;;;;;14.50;13.00;;;3.90;61.70;;;;;;4967490;28;20147;-81
2023/01/23 03:50:19;;;;;;;14.23;12.70;;;3.90;61.70;;;;;;4942651;28;20058;-80
2023/01/23 03:52:45;;;;;;;15.45;13.52;;;3.90;61.70;;;;;;4955040;28;20502;-80
2023/01/23 03:55:11;;;;;;;13.77;12.35;;;3.80;61.60;;;;;;4967337;28;20039;-80
2023/01/23 03:57:39;;;;;;;14.73;13.27;;;3.80;61.60;;;;;;4959842;28;20510;-81
2023/01/23 04:00:17;;;;;;;14.40;13.00;;;3.80;61.60;;;;;;4964370;28;20055;-80
2023/01/23 04:02:57;;;;;;;13.75;12.45;;;3.70;61.50;;;;;;4960592;28;20038;-79
2023/01/23 04:05:23;;;;;;;14.07;12.48;;;3.70;61.50;;;;;;4973420;28;20597;-79
2023/01/23 04:07:49;;;;;;;15.30;12.95;;;3.70;61.60;;;;;;4943432;28;20039;-80
2023/01/23 04:10:16;;;;;;;14.02;12.63;;;3.70;61.60;;;;;;4963495;28;20039;-80
2023/01/23 04:12:46;;;;;;;14.80;12.80;;;3.70;61.60;;;;;;4963782;28;20402;-81
2023/01/23 04:15:12;;;;;;;13.45;12.05;;;3.70;61.70;;;;;;4966390;28;20117;-80
2023/01/23 04:17:38;;;;;;;13.15;11.60;;;3.60;61.60;;;;;;4976181;28;20039;-82
2023/01/23 04:20:05;;;;;;;14.25;12.27;;;3.60;61.60;;;;;;4964449;28;20121;-81
2023/01/23 04:22:31;;;;;;;14.43;12.90;;;3.60;61.60;;;;;;4967923;28;20112;-81
2023/01/23 04:24:57;;;;;;;13.70;12.30;;;3.60;61.60;;;;;;4962719;28;20503;-80
2023/01/23 04:27:23;;;;;;;14.23;12.85;;;3.60;61.60;;;;;;4967231;28;20382;-80
2023/01/23 04:29:50;;;;;;;14.27;12.77;;;3.50;61.50;;;;;;4969050;28;20089;-80
2023/01/23 04:32:17;;;;;;;13.05;11.73;;;3.50;61.50;;;;;;4981163;28;20101;-80
2023/01/23 04:34:46;;;;;;;13.95;12.63;;;3.50;61.60;;;;;;4958668;28;20390;-80
2023/01/23 04:37:12;;;;;;;13.90;12.00;;;3.50;61.60;;;;;;4969086;28;20251;-82
2023/01/23 04:39:39;;;;;;;15.98;13.35;;;3.50;61.60;;;;;;4950464;28;20198;-81
2023/01/23 04:42:04;;;;;;;14.65;12.98;;;3.50;61.60;;;;;;4953159;28;20619;-80
2023/01/23 04:44:56;;;;;;;13.30;12.05;;;3.40;61.40;;;;;;4951224;28;20368;-81
2023/01/23 04:47:41;;;;;;;14.68;13.07;;;3.40;61.40;;;;;;4957128;28;20079;-80
2023/01/23 04:50:11;;;;;;;14.45;12.95;;;3.40;61.40;;;;;;4950489;28;20089;-80
2023/01/23 04:52:40;;;;;;;14.85;12.65;;;3.40;61.40;;;;;;4972524;28;20464;-82
2023/01/23 04:55:06;;;;;;;15.18;13.60;;;3.40;61.50;;;;;;4955231;28;20059;-82
2023/01/23 04:57:32;;;;;;;14.60;13.00;;;3.40;61.50;;;;;;4967472;28;20053;-80
2023/01/23 05:00:28;;;;;;;14.65;13.05;;;3.30;61.40;;;;;;4964832;28;20043;-79
2023/01/23 05:02:56;;;;;;;13.38;12.15;;;3.30;61.40;;;;;;4949998;28;20375;-80
2023/01/23 05:05:24;;;;;;;13.32;12.00;;;3.30;61.40;;;;;;4966039;28;20065;-80
2023/01/23 05:07:53;;;;;;;15.88;13.95;;;3.30;61.50;;;;;;4959265;28;20051;-81
2023/01/23 05:10:19;;;;;;;14.88;13.32;;;3.20;61.30;;;;;;4969734;28;20542;-81
2023/01/23 05:12:47;;;;;;;14.70;12.40;;;3.20;61.30;;;;;;4964321;28;20043;-80
2023/01/23 05:15:13;;;;;;;14.20;12.80;;;3.20;61.40;;;;;;4971512;28;20134;-78
2023/01/23 05:17:41;;;;;;;14.00;12.60;;;3.20;61.40;;;;;;4970706;28;20038;-80
2023/01/23 05:20:08;;;;;;;13.75;12.45;;;3.20;61.40;;;;;;4955527;28;20543;-81
2023/01/23 05:22:36;;;;;;;15.90;13.73;;;3.20;61.40;;;;;;4961909;28;20038;-81
2023/01/23 05:25:02;;;;;;;14.20;12.80;;;3.20;61.50;;;;;;4970997;28;20050;-82
2023/01/23 05:27:29;;;;;;;13.77;12.38;;;3.20;61.50;;;;;;4971703;28;20033;-82
2023/01/23 05:29:57;;;;;;;13.50;12.15;;;3.20;61.50;;;;;;4968270;28;20114;-81
2023/01/23 05:32:25;;;;;;;13.88;12.45;;;3.20;61.50;;;;;;4969376;28;20023;-81
2023/01/23 05:35:15;;;;;;;13.48;12.15;;;3.20;61.50;;;;;;4963094;28;20043;-80
2023/01/23 05:37:43;;;;;;;15.20;12.75;;;3.20;61.50;;;;;;4966536;28;20118;-80
2023/01/23 05:40:12;;;;;;;15.02;13.45;;;3.20;61.40;;;;;;4950437;28;20039;-79
2023/01/23 05:42:56;;;;;;;12.82;11.63;;;3.20;61.50;;;;;;4942485;28;20067;-80
2023/01/23 05:45:57;;;;;;;14.95;13.45;;;3.20;61.50;;;;;;4947001;28;20049;-81
2023/01/23 05:48:35;;;;;;;15.13;13.63;;;3.20;61.40;;;;;;4951155;28;20541;-82
2023/01/23 05:51:07;;;;;;;14.23;12.73;;;3.20;61.90;;;;;;4950766;28;20064;-77
2023/01/23 05:53:33;;;;;;;13.27;11.88;;;3.20;61.40;;;;;;4952253;28;20035;-81
2023/01/23 05:56:04;;;;;;;14.20;12.70;;;3.20;61.90;;;;;;4963004;28;20070;-80
2023/01/23 05:58:33;;;;;;;14.25;12.85;;;3.20;61.50;;;;;;4961948;28;20038;-83
2023/01/23 06:01:19;;;;;;;15.07;12.45;;;3.20;61.50;;;;;;4947315;28;20035;-82
2023/01/23 06:04:05;;;;;;;14.73;13.10;;;3.10;61.30;;;;;;4941832;28;20039;-83
2023/01/23 06:06:51;;;;;;;14.95;13.55;;;3.10;61.30;;;;;;4940580;28;20043;-83
2023/01/23 06:09:17;;;;;;;15.38;13.70;;;3.10;61.30;;;;;;4939258;28;20105;-82
2023/01/23 06:11:43;;;;;;;14.02;12.63;;;3.10;61.30;;;;;;4951524;28;20495;-84
2023/01/23 06:14:09;;;;;;;14.18;12.77;;;3.10;61.40;;;;;;4946246;28;20043;-85
2023/01/23 06:16:35;;;;;;;13.68;12.30;;;3.10;61.40;;;;;;4945600;28;20039;-81
2023/01/23 06:19:03;;;;;;;14.10;12.60;;;3.00;61.20;;;;;;4943364;28;20388;-84
2023/01/23 06:21:31;;;;;;;14.23;12.75;;;3.00;61.30;;;;;;4963218;28;20506;-82
2023/01/23 06:23:59;;;;;;;14.80;13.20;;;3.00;61.30;;;;;;4946194;28;20044;-82
2023/01/23 06:26:25;;;;;;;12.85;11.65;;;3.00;61.30;;;;;;4963321;28;20130;-82
2023/01/23 06:28:52;;;;;;;14.60;13.10;;;3.00;61.80;;;;;;4945470;28;20043;-81
2023/01/23 06:31:18;;;;;;;14.30;12.82;;;3.00;61.30;;;;;;4936255;28;20035;-84
2023/01/23 06:33:52;;;;;;;14.02;12.57;;;3.00;61.30;;;;;;4952292;28;20035;-90
2023/01/23 06:36:21;;;;;;;14.55;13.00;;;3.00;61.30;;;;;;4963449;28;20035;-89
2023/01/23 06:38:48;;;;;;;14.27;12.88;;;3.00;61.30;;;;;;4958524;28;20499;-92
2023/01/23 06:41:14;;;;;;;13.18;11.88;;;3.00;61.30;;;;;;4948905;28;20349;-89
2023/01/23 06:43:48;;;;;;;13.38;12.07;;;3.00;61.30;;;;;;4952485;28;20035;-86
2023/01/23 06:46:19;;;;;;;13.18;11.82;;;3.00;61.20;;;;;;4948285;28;20176;-85
2023/01/23 06:48:45;;;;;;;15.05;13.43;;;3.00;61.30;;;;;;4953908;28;20038;-90
2023/01/23 06:51:11;;;;;;;15.25;13.77;;;3.10;61.60;;;;;;4959487;29;20019;-90
2023/01/23 06:53:42;;;;;;;15.45;13.93;;;3.10;61.70;;;;;;4950136;28;20101;-88
2023/01/23 06:56:09;;;;;;;14.02;12.60;;;3.10;61.60;;;;;;4944868;28;20168;-85
2023/01/23 06:58:37;;;;;;;15.50;13.90;;;3.10;61.50;;;;;;4961328;28;20043;-90
2023/01/23 07:01:09;;;;;;;13.93;12.15;;;3.10;61.50;;;;;;4955894;28;20038;-79
2023/01/23 07:04:10;;;;;;;13.93;12.52;;;3.10;61.50;;;;;;4936664;28;20034;-86
2023/01/23 07:06:38;;;;;;;15.82;12.52;;;3.10;61.40;;;;;;4945999;28;20138;-82
2023/01/23 07:09:04;;;;;;;14.45;12.75;;;3.10;61.50;;;;;;4945328;28;20041;-81
2023/01/23 07:11:30;;;;;;;13.50;12.20;;;3.10;61.50;;;;;;4948225;28;20118;-89
2023/01/23 07:13:57;;;;;;;14.82;13.32;;;3.10;61.70;;;;;;4953408;28;20478;-90
2023/01/23 07:16:24;;;;;;;14.43;13.05;;;3.10;61.80;;;;;;4948269;28;20094;-86
2023/01/23 07:18:50;;;;;;;13.55;11.80;;;3.20;62.00;;;;;;4944794;28;20039;-88
2023/01/23 07:21:17;;;;;;;12.82;11.63;;;3.30;62.10;;;;;;4948173;28;20065;-90
2023/01/23 07:23:43;;;;;;;13.68;11.95;;;3.20;61.90;;;;;;4953811;28;20043;-89
2023/01/23 07:26:10;;;;;;;13.77;12.30;;;3.20;61.90;;;;;;4967462;28;20333;-88
2023/01/23 07:28:37;;;;;;;12.73;11.52;;;3.20;61.90;;;;;;4970067;28;20236;-89
2023/01/23 07:31:03;;;;;;;14.75;13.23;;;3.30;62.20;;;;;;4962524;28;20506;-79
2023/01/23 07:33:29;;;;;;;14.50;13.10;;;3.20;62.00;;;;;;4974241;28;20031;-80
2023/01/23 07:35:55;;;;;;;13.00;11.70;;;3.20;62.00;;;;;;4968302;28;20133;-85
2023/01/23 07:38:24;;;;;;;13.65;12.35;;;3.20;62.10;;;;;;4969917;28;20042;-87
2023/01/23 07:40:51;;;;;;;14.35;12.82;;;3.20;62.10;;;;;;4961498;28;20050;-86
2023/01/23 07:43:17;;;;;;;13.82;12.43;;;3.10;61.90;;;;;;4958340;28;20023;-87
2023/01/23 07:45:44;;;;;;;15.07;12.82;;;3.10;61.90;;;;;;4938276;28;20483;-85
2023/01/23 07:48:10;;;;;;;12.98;11.77;;;3.10;61.90;;;;;;4946644;28;20043;-86
2023/01/23 07:50:36;;;;;;;13.95;12.65;;;3.10;61.90;;;;;;4945403;28;20035;-87
2023/01/23 07:53:04;;;;;;;14.23;12.73;;;3.10;62.00;;;;;;4948968;28;20031;-85
2023/01/23 07:55:30;;;;;;;15.60;13.73;;;3.10;61.90;;;;;;4969346;28;20546;-85
2023/01/23 07:57:56;;;;;;;14.32;12.88;;;3.00;62.30;;;;;;4946399;28;20027;-83
2023/01/23 08:00:23;;;;;;;14.90;13.13;;;3.10;62.00;;;;;;4954234;28;20043;-83
2023/01/23 08:02:49;;;;;;;15.55;12.75;;;3.00;61.80;;;;;;4945408;28;20396;-79
2023/01/23 08:05:15;;;;;;;14.23;12.73;;;3.00;61.70;;;;;;4956964;28;20038;-86
2023/01/23 08:07:41;;;;;;;14.82;13.32;;;3.00;61.70;;;;;;4948213;28;20114;-85
2023/01/23 08:10:08;;;;;;;14.95;13.45;;;3.00;61.70;;;;;;4946341;28;20517;-85
2023/01/23 08:12:34;;;;;;;14.68;13.25;;;3.00;61.70;;;;;;4961658;28;20130;-88
2023/01/23 08:14:59;;;;;;;14.10;12.80;;;3.00;62.30;;;;;;4972512;28;20355;-91
2023/01/23 08:17:25;;;;;;;14.65;13.25;;;3.00;61.70;;;;;;4962973;28;20035;-93
2023/01/23 08:19:51;;;;;;;15.05;13.52;;;3.00;61.70;;;;;;4956681;28;20391;-93
2023/01/23 08:22:18;;;;;;;15.13;13.52;;;3.00;61.70;;;;;;4961353;28;20117;-93
2023/01/23 08:24:46;;;;;;;14.63;13.13;;;3.00;61.70;;;;;;4958569;28;20043;-93
2023/01/23 08:27:13;;;;;;;14.98;13.32;;;3.10;61.80;;;;;;4961407;28;20034;-77
2023/01/23 08:29:39;;;;;;;14.55;13.05;;;3.10;61.80;;;;;;4960413;28;20034;-80
2023/01/23 08:32:05;;;;;;;16.20;14.45;;;3.10;61.80;;;;;;4945121;28;20023;-88
2023/01/23 08:34:31;;;;;;;14.73;13.23;;;3.10;61.70;;;;;;4945253;28;20047;-83
2023/01/23 08:36:57;;;;;;;15.55;13.95;;;3.10;61.70;;;;;;4956435;28;20270;-86
2023/01/23 08:39:23;;;;;;;15.55;13.95;;;3.10;61.60;;;;;;4949779;28;20528;-84
2023/01/23 08:41:49;;;;;;;15.55;14.05;;;3.10;61.60;;;;;;4950074;28;20045;-87
2023/01/23 08:44:15;;;;;;;15.90;13.82;;;3.10;61.50;;;;;;4944682;28;20075;-86
2023/01/23 08:46:44;;;;;;;15.00;13.07;;;3.20;61.70;;;;;;4943220;28;20069;-86
2023/01/23 08:49:10;;;;;;;16.10;13.48;;;3.20;61.60;;;;;;4949380;28;20395;-88
2023/01/23 08:51:36;;;;;;;15.40;13.80;;;3.20;61.60;;;;;;4960445;28;20512;-86
2023/01/23 08:54:02;;;;;;;14.85;13.35;;;3.20;61.50;;;;;;4968938;28;20046;-86
2023/01/23 08:56:28;;;;;;;16.17;14.50;;;3.30;61.70;;;;;;4955420;28;20039;-86
2023/01/23 08:58:54;;;;;;;15.23;13.70;;;3.20;61.40;;;;;;4948891;28;20066;-83
2023/01/23 09:01:23;;;;;;;16.10;14.55;;;3.20;61.40;;;;;;4948578;28;20035;-81
2023/01/23 09:03:50;;;;;;;18.73;14.23;;;3.20;61.40;;;;;;4947734;28;20035;-77
2023/01/23 09:06:18;;;;;;;16.75;14.98;;;3.30;62.10;;;;;;4947033;28;20032;-78
2023/01/23 09:08:45;;;;;;;20.45;14.20;;;3.30;61.60;;;;;;4947019;28;20336;-77
2023/01/23 09:11:12;;;;;;;18.95;16.23;;;3.40;62.00;;;;;;4946559;28;20110;-77
2023/01/23 09:13:39;;;;;;;23.00;15.77;;;3.50;62.40;;;;;;4940825;28;20570;-77
2023/01/23 09:16:07;;;;;;;19.85;16.40;;;3.60;62.50;;;;;;4941035;28;20035;-77
2023/01/23 09:18:33;;;;;;;19.63;16.48;;;3.90;63.00;;;;;;4946790;28;20039;-77
2023/01/23 09:20:59;;;;;;;18.08;16.13;;;4.10;63.20;;;;;;4947312;28;20139;-82
2023/01/23 09:23:25;;;;;;;18.48;16.48;;;4.30;63.50;;;;;;4946778;28;20039;-82
2023/01/23 09:25:51;;;;;;;17.30;15.52;;;4.50;63.60;;;;;;4950341;28;20041;-82
2023/01/23 09:28:17;;;;;;;16.05;14.48;;;4.70;63.90;;;;;;4950178;28;20482;-81
2023/01/23 09:30:43;;;;;;;23.70;15.13;;;4.90;64.00;;;;;;4948426;28;20035;-81
2023/01/23 09:33:10;;;;;;;17.45;13.75;;;5.10;64.20;;;;;;4947235;28;20516;-84
2023/01/23 09:35:36;;;;;;;14.45;13.05;;;5.30;64.30;;;;;;4946111;28;20506;-80
2023/01/23 09:38:05;;;;;;;14.35;12.85;;;5.50;64.40;;;;;;4960410;28;20035;-81
2023/01/23 09:40:44;;;;;;;14.82;12.30;;;5.70;64.60;;;;;;4960782;28;20112;-84
2023/01/23 09:43:19;;;;;;;12.35;11.15;;;5.90;64.60;;;;;;4947707;28;20491;-84
2023/01/23 09:46:14;;;;;;;11.80;10.50;;;6.10;64.70;;;;;;4947942;28;20095;-83
2023/01/23 09:48:52;;;;;;;12.60;11.30;;;6.30;64.70;;;;;;4925074;28;20043;-82
2023/01/23 09:51:28;;;;;;;11.02;9.93;;;6.50;64.60;;;;;;4943516;28;20457;-81
2023/01/23 09:54:00;;;;;;;12.40;10.70;;;6.80;64.90;;;;;;4947719;28;20462;-78
2023/01/23 09:56:34;;;;;;;9.77;8.80;;;6.90;64.70;;;;;;4946044;28;20043;-78
2023/01/23 09:59:14;;;;;;;10.80;9.18;;;7.10;64.80;;;;;;4945338;28;20039;-78
2023/01/23 10:01:40;;;;;;;9.52;8.60;;;7.30;64.90;;;;;;4944076;28;20050;-77
2023/01/23 10:04:09;;;;;;;9.35;8.45;;;7.40;64.80;;;;;;4947123;28;20031;-76
2023/01/23 10:07:07;;;;;;;9.82;8.35;;;7.50;64.80;;;;;;4948135;28;20070;-76
2023/01/23 10:09:55;;;;;;;8.82;7.93;;;7.70;65.00;;;;;;4944099;28;20031;-76
2023/01/23 10:12:54;;;;;;;8.85;7.95;;;7.80;64.90;;;;;;4946094;28;20031;-76
2023/01/23 10:15:26;;;;;;;9.45;8.48;;;7.90;64.80;;;;;;4946799;28;20438;-77
2023/01/23 10:18:22;;;;;;;10.27;7.82;;;8.10;64.90;;;;;;4945199;28;20603;-80
2023/01/23 10:21:06;;;;;;;8.50;7.70;;;8.20;64.80;;;;;;4942045;28;20047;-79
2023/01/23 10:23:35;;;;;;;11.02;7.95;;;8.40;64.90;;;;;;4935219;28;20031;-79
2023/01/23 10:26:02;;;;;;;9.98;7.45;;;8.40;64.70;;;;;;4948612;28;20071;-79
2023/01/23 10:28:38;;;;;;;8.43;7.63;;;8.50;64.70;;;;;;4949542;28;20062;-81
2023/01/23 10:31:11;;;;;;;8.25;7.30;;;8.60;64.80;;;;;;4946138;28;20039;-84
2023/01/23 10:34:11;;;;;;;8.48;7.68;;;8.60;64.60;;;;;;4946007;28;20058;-76
2023/01/23 10:36:36;;;;;;;7.28;6.60;;;8.70;64.60;;;;;;4946392;28;20616;-80
2023/01/23 10:39:08;;;;;;;10.43;7.90;;;8.70;64.50;;;;;;4951202;28;20031;-81
2023/01/23 10:41:34;;;;;;;8.07;6.60;;;8.80;64.60;;;;;;4946452;28;20121;-82
2023/01/23 10:44:01;;;;;;;8.98;7.30;;;8.80;64.60;;;;;;4947597;28;20082;-83
2023/01/23 10:46:31;;;;;;;7.18;6.47;;;8.80;64.50;;;;;;4935682;28;20154;-81
2023/01/23 10:49:00;;;;;;;8.35;6.95;;;8.90;64.60;;;;;;4958370;28;20039;-82
2023/01/23 10:51:32;;;;;;;7.18;6.47;;;8.80;64.30;;;;;;4954800;28;20414;-81
2023/01/23 10:54:01;;;;;;;8.20;6.97;;;8.90;64.40;;;;;;4937176;28;20034;-83
2023/01/23 10:56:27;;;;;;;7.43;6.65;;;8.90;64.40;;;;;;4945639;28;20404;-83
2023/01/23 10:58:58;;;;;;;9.70;6.65;;;8.90;64.30;;;;;;4950260;28;20039;-83
2023/01/23 11:01:31;;;;;;;7.60;6.88;;;8.90;64.20;;;;;;4945352;28;20043;-83
2023/01/23 11:04:09;;;;;;;6.45;5.75;;;8.90;64.10;;;;;;4938554;28;20035;-84
2023/01/23 11:06:35;;;;;;;7.32;6.63;;;9.00;64.20;;;;;;4943120;28;20439;-82
2023/01/23 11:09:01;;;;;;;7.88;6.72;;;9.00;64.10;;;;;;4945701;28;20035;-82
2023/01/23 11:11:30;;;;;;;6.53;5.93;;;9.00;64.00;;;;;;4943011;28;20130;-82
2023/01/23 11:14:15;;;;;;;6.40;5.80;;;9.00;63.90;;;;;;4956420;28;20041;-83
2023/01/23 11:16:42;;;;;;;7.97;6.03;;;9.10;63.90;;;;;;4947435;28;20034;-83
2023/01/23 11:19:08;;;;;;;7.65;5.32;;;9.10;63.80;;;;;;4946256;28;20050;-83
2023/01/23 11:21:37;;;;;;;6.25;5.38;;;9.20;63.80;;;;;;4946106;28;20023;-85
2023/01/23 11:24:30;;;;;;;7.97;6.63;;;9.20;63.70;;;;;;4942720;28;20025;-84
2023/01/23 11:26:57;;;;;;;;;;;9.20;63.50;;;;;;4942135;28;20502;-82
2023/01/23 11:29:25;;;;;;;7.72;5.63;;;9.30;63.70;;;;;;4950679;28;19918;-83
2023/01/23 11:32:00;;;;;;;9.35;6.05;;;9.30;63.60;;;;;;4946441;28;20066;-83
2023/01/23 11:34:32;;;;;;;6.50;5.90;;;9.30;63.50;;;;;;4946500;28;20086;-82
2023/01/23 11:37:04;;;;;;;7.93;5.90;;;9.40;63.50;;;;;;4945477;28;20179;-81
2023/01/23 11:39:48;;;;;;;6.85;6.15;;;9.40;63.40;;;;;;4945042;28;20119;-81
2023/01/23 11:42:16;;;;;;;6.70;6.00;;;9.40;63.20;;;;;;4946262;28;20519;-84
2023/01/23 11:44:42;;;;;;;6.72;5.70;;;9.50;63.30;;;;;;4945480;28;20070;-86
2023/01/23 11:47:08;;;;;;;6.53;5.85;;;9.50;63.20;;;;;;4955593;29;20051;-86
2023/01/23 11:50:05;;;;;;;7.43;6.50;;;9.50;63.10;;;;;;4939050;28;20058;-87
2023/01/23 11:52:36;;;;;;;7.07;6.38;;;9.40;62.80;;;;;;4943372;28;20462;-84
2023/01/23 11:55:11;;;;;;;9.35;6.47;;;9.30;62.60;;;;;;4941239;28;20038;-86
2023/01/23 11:58:02;;;;;;;7.82;7.03;;;9.30;62.60;;;;;;4936816;28;20046;-85
2023/01/23 12:00:54;;;;;;;8.55;7.65;;;9.10;62.20;;;;;;4952639;28;20035;-86
2023/01/23 12:03:26;;;;;;;12.35;7.07;;;9.00;62.10;;;;;;4945596;28;20046;-87
2023/01/23 12:06:11;;;;;;;7.97;7.17;;;8.80;61.90;;;;;;4937858;28;20039;-78
2023/01/23 12:08:45;;;;;;;7.95;6.72;;;8.70;61.80;;;;;;4944503;28;20785;-79
2023/01/23 12:11:19;;;;;;;8.27;7.47;;;8.60;61.90;;;;;;4942729;28;20089;-78
2023/01/23 12:14:20;;;;;;;8.27;6.72;;;8.60;61.90;;;;;;4946081;28;20034;-79
2023/01/23 12:17:07;;;;;;;7.78;7.07;;;8.50;61.70;;;;;;4945197;28;20043;-88
2023/01/23 12:19:43;;;;;;;10.32;7.60;;;8.40;61.70;;;;;;4944349;28;20491;-81
2023/01/23 12:22:50;;;;;;;7.70;6.55;;;8.40;61.90;;;;;;4945404;28;20042;-86
2023/01/23 12:25:36;;;;;;;8.38;6.40;;;8.30;61.90;;;;;;4944715;28;20065;-79
2023/01/23 12:28:57;;;;;;;8.30;7.00;;;8.30;62.10;;;;;;4944776;28;20123;-78
2023/01/23 12:31:32;;;;;;;7.43;6.60;;;8.30;62.10;;;;;;4904259;29;20060;-82
2023/01/23 12:34:28;;;;;;;7.50;6.55;;;8.30;62.10;;;;;;4903432;29;20047;-79
2023/01/23 12:37:12;;;;;;;9.32;7.60;;;8.20;61.80;;;;;;4925127;28;20047;-80
2023/01/23 12:40:06;;;;;;;8.48;7.60;;;8.20;61.70;;;;;;4935330;28;20065;-85
2023/01/23 12:42:53;;;;;;;9.50;8.07;;;8.20;61.70;;;;;;4946009;28;20039;-86
2023/01/23 12:45:27;;;;;;;9.80;7.80;;;8.10;61.50;;;;;;4937304;28;20046;-86
2023/01/23 12:48:05;;;;;;;9.48;7.38;;;8.10;61.60;;;;;;4926933;28;20059;-88
2023/01/23 12:50:48;;;;;;;10.10;7.93;;;8.10;61.60;;;;;;4940064;28;20042;-85
2023/01/23 12:53:17;;;;;;;8.77;7.55;;;8.10;61.50;;;;;;4942672;28;20035;-85
2023/01/23 12:56:04;;;;;;;9.60;8.02;;;8.00;61.50;;;;;;4941827;28;20066;-83
2023/01/23 12:58:35;;;;;;;9.93;7.85;;;8.00;61.40;;;;;;4930369;28;20144;-85
2023/01/23 13:01:13;;;;;;;10.02;9.00;;;8.00;61.40;;;;;;4945738;28;20507;-86
2023/01/23 13:03:54;;;;;;;9.10;8.20;;;8.00;61.40;;;;;;4935283;28;20058;-84
2023/01/23 13:06:46;;;;;;;9.65;8.65;;;7.90;61.30;;;;;;4944975;28;20035;-85